This is the latest recevied weather packets stored in our database for station/object N7TUG. If no packets are shown the sender has not sent any weather packets the latest 10 day(s).
| Time | Temp. | Humidity | Pressure | Rain* | Wind** | Luminosity | Snow |
|---|---|---|---|---|---|---|---|
| 1777315515 | 12.22° C | 80% | 1016.5 hPa | 0 mm | - | 152 W/m² | - |
| 1777312535 | 11.67° C | 82% | 1016.2 hPa | 0 mm | - | 146 W/m² | - |
| 1777311335 | 11.67° C | 82% | 1016 hPa | 0 mm | - | 131 W/m² | - |
| 1777310115 | 11.11° C | 83% | 1015.9 hPa | 0 mm | - | 121 W/m² | - |
| 1777308915 | 11.11° C | 81% | 1015.9 hPa | 0 mm | - | 111 W/m² | - |
| 1777307715 | 11.11° C | 81% | 1015.8 hPa | 0 mm | - | 105 W/m² | - |
| 1777305915 | 11.11° C | 82% | 1015.5 hPa | 0 mm | - | 106 W/m² | - |
| 1777302915 | 11.11° C | 82% | 1015.2 hPa | 0 mm | - | 87 W/m² | - |
| 1777301715 | 11.11° C | 82% | 1015.1 hPa | 0 mm | - | 76 W/m² | - |
| 1777301136 | 11.11° C | 82% | 1015 hPa | 0 mm | - | 75 W/m² | - |
| 1777297515 | 10.56° C | 83% | 1014.5 hPa | 0 mm | - | 42 W/m² | - |
| 1777291516 | 10.56° C | 83% | 1013.7 hPa | 0 mm | - | 18 W/m² | - |
| 1777290915 | 10.56° C | 83% | 1013.7 hPa | 0 mm | - | 18 W/m² | - |
| 1777287315 | 10.56° C | 84% | 1013 hPa | 0 mm | - | 18 W/m² | - |
| 1777281915 | 10.56° C | 86% | 1012.7 hPa | 0 mm | - | 18 W/m² | - |
| 1777280715 | 10° C | 86% | 1012.6 hPa | 0 mm | - | 18 W/m² | - |
| 1777278915 | 10.56° C | 86% | 1012.6 hPa | 0 mm | - | 18 W/m² | - |
| 1777272915 | 11.67° C | 83% | 1011.4 hPa | 0 mm | - | 18 W/m² | - |
| 1777269315 | 13.33° C | 78% | 1010.9 hPa | 0 mm | - | 18 W/m² | - |
| 1777266916 | 14.44° C | 68% | 1010.6 hPa | 0 mm | - | 18 W/m² | - |
| 1777263956 | 15° C | 63% | 1010.1 hPa | 0 mm | - | 18 W/m² | - |
| 1777255536 | 21.11° C | 36% | 1009 hPa | 0 mm | - | 66 W/m² | - |
| 1777253715 | 18.89° C | 37% | 1008.9 hPa | 0 mm | - | 136 W/m² | - |
| 1777245915 | 22.78° C | 37% | 1008.6 hPa | 0 mm | - | 554 W/m² | - |
| 1777243516 | 21.67° C | 37% | 1008.7 hPa | 0 mm | - | 657 W/m² | - |
* Rain latest hour (hover to see other rain measurements)
** Current wind speed in m/s (hover to see current wind gust speed)